Time;durP1;ratioP1;P1;durP2;ratioP2;P2;SDS_P1;SDS_P2;PMS_P1;PMS_P2;Temp;Humidity;BMP_temperature;BMP_pressure;BME280_temperature;BME280_humidity;BME280_pressure;Samples;Min_cycle;Max_cycle;Signal;HPM_P1;HPM_P2
2021/08/12 00:00:00;;;;;;;10.57;7.10;;;;;;;16.94;100.00;96235.13;1035355;28;20018;-71
2021/08/12 00:00:30;;;;;;;12.80;7.68;;;;;;;16.91;100.00;96228.53;1035026;28;20472;-70
2021/08/12 00:01:01;;;;;;;10.43;7.15;;;;;;;16.91;100.00;96230.41;1035091;28;20022;-70
2021/08/12 00:01:31;;;;;;;11.18;7.50;;;;;;;16.88;100.00;96225.69;1034842;28;20025;-70
2021/08/12 00:02:02;;;;;;;15.02;7.70;;;;;;;16.83;100.00;96217.81;1029156;28;20057;-70
2021/08/12 00:02:32;;;;;;;10.90;7.20;;;;;;;16.89;100.00;96227.25;1026896;28;20406;-70
2021/08/12 00:03:03;;;;;;;13.43;7.70;;;;;;;16.89;100.00;96221.94;1026975;28;20018;-71
2021/08/12 00:03:34;;;;;;;10.77;8.00;;;;;;;16.84;100.00;96227.34;1026977;28;20018;-70
2021/08/12 00:04:05;;;;;;;11.75;7.50;;;;;;;16.89;100.00;96232.56;1026969;28;20126;-71
2021/08/12 00:04:35;;;;;;;11.57;7.22;;;;;;;16.87;100.00;96237.38;1031048;28;20033;-71
2021/08/12 00:05:07;;;;;;;10.55;6.97;;;;;;;16.86;100.00;96238.44;1031504;28;20041;-70
2021/08/12 00:05:37;;;;;;;14.30;7.60;;;;;;;16.84;100.00;96233.44;1035303;28;20096;-71
2021/08/12 00:06:08;;;;;;;11.30;6.13;;;;;;;16.83;100.00;96228.41;1043277;28;20029;-70
2021/08/12 00:06:38;;;;;;;11.43;7.10;;;;;;;16.82;100.00;96232.16;1039113;28;20150;-71
2021/08/12 00:07:09;;;;;;;12.35;6.82;;;;;;;16.82;100.00;96232.16;1030767;28;20037;-68
2021/08/12 00:07:39;;;;;;;11.93;7.03;;;;;;;16.77;100.00;96224.25;1022997;29;20024;-70
2021/08/12 00:08:10;;;;;;;9.48;6.63;;;;;;;16.82;100.00;96237.44;1026829;28;20058;-70
2021/08/12 00:08:40;;;;;;;10.80;6.57;;;;;;;16.79;100.00;96233.50;1029195;28;20023;-70
2021/08/12 00:09:11;;;;;;;10.00;6.28;;;;;;;16.72;100.00;96228.53;1034922;28;20112;-72
2021/08/12 00:09:41;;;;;;;13.50;7.40;;;;;;;16.78;100.00;96236.47;1022889;28;20118;-70
2021/08/12 00:10:11;;;;;;;10.15;7.38;;;;;;;16.76;100.00;96228.78;1027291;28;20066;-70
2021/08/12 00:10:42;;;;;;;10.52;6.50;;;;;;;16.75;100.00;96229.09;1026901;28;20026;-70
2021/08/12 00:11:12;;;;;;;12.18;7.88;;;;;;;16.72;100.00;96231.19;1026966;28;20022;-70
2021/08/12 00:11:43;;;;;;;10.25;6.50;;;;;;;16.72;100.00;96233.06;1030195;28;20030;-71
2021/08/12 00:12:13;;;;;;;15.43;6.97;;;;;;;16.63;100.00;96222.34;1026563;28;20115;-71
2021/08/12 00:12:44;;;;;;;17.77;7.65;;;;;;;16.68;100.00;96235.50;1038954;28;20403;-71
2021/08/12 00:13:14;;;;;;;18.38;7.03;;;;;;;16.67;100.00;96228.66;1035044;28;20101;-71
2021/08/12 00:13:45;;;;;;;14.98;7.40;;;;;;;16.66;100.00;96229.69;1034332;28;20029;-71
2021/08/12 00:14:15;;;;;;;11.75;7.07;;;;;;;16.67;100.00;96226.00;1026760;28;20026;-70
2021/08/12 00:14:46;;;;;;;10.50;6.88;;;;;;;16.65;100.00;96227.34;1022480;28;20027;-70
2021/08/12 00:15:16;;;;;;;13.10;6.90;;;;;;;16.65;100.00;96232.66;1026788;28;20034;-70
2021/08/12 00:15:47;;;;;;;14.13;7.40;;;;;;;16.65;100.00;96232.66;1023075;28;20039;-71
2021/08/12 00:16:17;;;;;;;14.05;6.53;;;;;;;16.62;100.00;96222.63;1026939;28;20061;-70
2021/08/12 00:16:48;;;;;;;12.10;6.60;;;;;;;16.56;100.00;96219.25;1029268;28;20038;-68
2021/08/12 00:17:18;;;;;;;9.27;6.78;;;;;;;16.54;100.00;96224.06;1022933;28;20039;-70
2021/08/12 00:17:49;;;;;;;10.82;6.72;;;;;;;16.59;100.00;96228.50;1018297;28;20057;-68
2021/08/12 00:18:20;;;;;;;13.48;6.88;;;;;;;16.59;100.00;96231.94;1015102;29;20044;-70
2021/08/12 00:18:55;;;;;;;9.85;6.63;;;;;;;16.50;100.00;96217.78;1020990;28;20039;-71
2021/08/12 00:19:26;;;;;;;9.35;7.10;;;;;;;16.56;100.00;96235.16;1023639;28;20534;-70
2021/08/12 00:19:56;;;;;;;11.80;6.65;;;;;;;16.55;100.00;96238.88;1022838;29;20038;-70
2021/08/12 00:20:26;;;;;;;12.55;7.53;;;;;;;16.54;100.00;96236.53;1020211;29;20039;-70
2021/08/12 00:20:57;;;;;;;11.35;6.68;;;;;;;16.49;100.00;96229.44;1024215;28;20078;-70
2021/08/12 00:21:27;;;;;;;7.38;6.28;;;;;;;16.41;100.00;96220.28;1027181;28;20038;-71
2021/08/12 00:21:58;;;;;;;12.85;7.65;;;;;;;16.50;100.00;96237.13;1022198;29;20019;-70
2021/08/12 00:22:28;;;;;;;9.85;6.65;;;;;;;16.45;100.00;96231.09;1022825;29;20038;-70
2021/08/12 00:22:59;;;;;;;14.82;7.47;;;;;;;16.48;100.00;96239.25;1030368;28;20026;-71
2021/08/12 00:23:29;;;;;;;17.02;7.72;;;;;;;16.49;100.00;96240.03;1026912;28;20030;-71
2021/08/12 00:24:00;;;;;;;14.50;7.50;;;;;;;16.48;100.00;96236.59;1030736;28;20045;-71
2021/08/12 00:24:30;;;;;;;10.30;7.05;;;;;;;16.46;100.00;96236.13;1030771;28;20022;-71
2021/08/12 00:25:01;;;;;;;13.05;7.05;;;;;;;16.46;100.00;96240.59;1034819;28;20022;-70
2021/08/12 00:25:31;;;;;;;12.07;7.05;;;;;;;16.36;100.00;96230.94;1030890;28;20082;-71
2021/08/12 00:26:02;;;;;;;17.50;6.80;;;;;;;16.45;100.00;96236.38;1034719;28;20679;-70
2021/08/12 00:26:32;;;;;;;13.90;6.60;;;;;;;16.40;100.00;96236.47;1031411;28;20490;-71
2021/08/12 00:27:03;;;;;;;12.10;7.30;;;;;;;16.36;100.00;96227.50;1030822;28;20404;-70
2021/08/12 00:27:33;;;;;;;14.40;7.03;;;;;;;16.41;100.00;96243.34;1034764;28;20056;-70
2021/08/12 00:28:04;;;;;;;17.45;7.15;;;;;;;16.40;100.00;96239.13;1030557;28;20145;-70
2021/08/12 00:28:34;;;;;;;17.60;6.75;;;;;;;16.40;100.00;96242.56;1027064;28;20030;-70
2021/08/12 00:29:05;;;;;;;10.98;7.10;;;;;;;16.39;100.00;96242.84;1034589;28;20037;-71
2021/08/12 00:29:35;;;;;;;10.18;7.38;;;;;;;16.38;100.00;96243.91;1027021;28;20019;-68
2021/08/12 00:30:06;;;;;;;9.30;6.85;;;;;;;16.37;100.00;96240.47;1034308;28;20022;-70
2021/08/12 00:30:36;;;;;;;10.27;7.25;;;;;;;16.35;100.00;96245.25;1034811;28;20049;-70
2021/08/12 00:31:07;;;;;;;11.50;7.03;;;;;;;16.34;100.00;96245.56;1034741;28;20034;-71
2021/08/12 00:31:37;;;;;;;11.55;7.20;;;;;;;16.32;100.00;96245.06;1034762;28;20539;-70
2021/08/12 00:32:08;;;;;;;15.57;7.32;;;;;;;16.30;100.00;96242.72;1034175;28;20475;-71
2021/08/12 00:32:38;;;;;;;16.45;7.13;;;;;;;16.29;100.00;96245.63;1034957;28;20391;-71
2021/08/12 00:33:09;;;;;;;13.43;6.80;;;;;;;16.28;100.00;96247.50;1034328;28;20084;-70
2021/08/12 00:33:39;;;;;;;18.95;7.63;;;;;;;16.26;100.00;96242.50;1035068;28;20033;-70
2021/08/12 00:34:09;;;;;;;12.02;8.00;;;;;;;16.27;100.00;96253.88;1026692;28;20061;-71
2021/08/12 00:34:40;;;;;;;17.98;7.20;;;;;;;16.27;100.00;96244.06;1022966;28;20061;-70
2021/08/12 00:35:10;;;;;;;9.48;6.95;;;;;;;16.24;100.00;96244.63;1022386;29;20032;-70
2021/08/12 00:35:41;;;;;;;16.48;6.95;;;;;;;16.20;100.00;96243.63;1026792;28;20015;-71
2021/08/12 00:36:11;;;;;;;11.45;7.35;;;;;;;16.24;100.00;96249.91;1024385;28;20081;-71
2021/08/12 00:36:42;;;;;;;10.02;7.00;;;;;;;16.19;100.00;96242.03;1019064;29;20098;-71
2021/08/12 00:37:12;;;;;;;9.40;6.88;;;;;;;16.22;100.00;96246.75;1018917;28;20030;-72
2021/08/12 00:37:43;;;;;;;12.75;7.22;;;;;;;16.21;100.00;96252.34;1022876;28;20024;-70
2021/08/12 00:38:13;;;;;;;12.95;6.95;;;;;;;16.18;100.00;96237.81;1026359;28;20019;-71
2021/08/12 00:38:43;;;;;;;12.88;7.60;;;;;;;16.18;100.00;96243.13;1026809;28;20019;-70
2021/08/12 00:39:14;;;;;;;9.45;7.03;;;;;;;16.18;100.00;96245.75;1026826;28;20499;-68
2021/08/12 00:39:44;;;;;;;8.00;6.93;;;;;;;16.16;100.00;96253.22;1026770;28;20014;-70
2021/08/12 00:40:15;;;;;;;12.63;7.47;;;;;;;16.14;100.00;96244.75;1021930;28;20498;-69
2021/08/12 00:40:46;;;;;;;11.93;7.47;;;;;;;16.12;100.00;96240.81;1026093;28;20579;-71
2021/08/12 00:41:16;;;;;;;10.75;6.90;;;;;;;16.16;100.00;96249.75;1026683;28;20023;-70
2021/08/12 00:41:46;;;;;;;9.40;6.97;;;;;;;16.13;100.00;96251.13;1026442;28;20699;-70
2021/08/12 00:42:17;;;;;;;19.17;6.50;;;;;;;16.12;100.00;96244.25;1030999;28;20014;-71
2021/08/12 00:42:47;;;;;;;17.30;7.97;;;;;;;16.12;100.00;96246.91;1035092;28;20034;-71
2021/08/12 00:43:18;;;;;;;9.80;7.15;;;;;;;16.12;100.00;96246.91;1034753;28;20021;-70
2021/08/12 00:43:49;;;;;;;16.90;7.05;;;;;;;16.14;100.00;96243.97;1039244;28;20052;-70
2021/08/12 00:44:19;;;;;;;12.20;7.70;;;;;;;16.12;100.00;96244.25;1039051;28;20442;-70
2021/08/12 00:44:50;;;;;;;10.27;7.05;;;;;;;16.11;100.00;96245.34;1038824;28;20021;-71
2021/08/12 00:45:20;;;;;;;14.00;7.13;;;;;;;16.10;100.00;96242.97;1035133;28;20042;-69
2021/08/12 00:45:50;;;;;;;11.15;6.95;;;;;;;16.09;100.00;96242.16;1035042;28;20069;-70
2021/08/12 00:46:21;;;;;;;11.25;7.75;;;;;;;16.10;100.00;96254.34;1034670;28;20452;-71
2021/08/12 00:46:51;;;;;;;12.43;7.60;;;;;;;16.09;100.00;96252.75;1035063;28;20695;-71
2021/08/12 00:47:22;;;;;;;17.70;7.28;;;;;;;16.08;100.00;96245.91;1034975;28;20369;-70
2021/08/12 00:47:52;;;;;;;10.82;7.47;;;;;;;16.08;100.00;96245.91;1030833;28;20049;-70
2021/08/12 00:48:23;;;;;;;11.82;7.53;;;;;;;16.07;100.00;96246.19;1034198;28;20029;-70
2021/08/12 00:48:53;;;;;;;12.13;8.02;;;;;;;16.07;100.00;96248.84;1039097;28;20025;-67
2021/08/12 00:49:24;;;;;;;14.23;7.60;;;;;;;16.03;100.00;96243.34;1039121;28;20033;-71
2021/08/12 00:49:54;;;;;;;9.65;7.43;;;;;;;16.06;100.00;96253.31;1036254;28;20018;-69
2021/08/12 00:50:24;;;;;;;11.68;7.47;;;;;;;16.03;100.00;96243.34;1035028;28;20026;-70
2021/08/12 00:50:55;;;;;;;11.45;7.28;;;;;;;16.09;100.00;96252.75;1031043;28;20851;-70
2021/08/12 00:51:25;;;;;;;11.52;7.18;;;;;;;16.04;100.00;96244.91;1026204;28;20422;-71
2021/08/12 00:51:56;;;;;;;14.30;7.47;;;;;;;16.10;100.00;96246.41;1021963;29;20024;-70
2021/08/12 00:52:26;;;;;;;10.73;7.53;;;;;;;16.11;100.00;96255.91;1019171;29;20032;-70
2021/08/12 00:52:57;;;;;;;12.98;7.30;;;;;;;16.11;100.00;96250.63;1022866;29;20070;-70
2021/08/12 00:53:27;;;;;;;9.00;7.07;;;;;;;16.10;100.00;96253.56;1026633;28;20023;-71
2021/08/12 00:53:58;;;;;;;10.63;7.40;;;;;;;16.10;100.00;96254.34;1030649;28;20014;-71
2021/08/12 00:54:28;;;;;;;14.75;7.20;;;;;;;16.10;100.00;96249.06;1034523;28;20022;-70
2021/08/12 00:55:00;;;;;;;10.75;7.40;;;;;;;16.09;100.00;96252.75;1029035;28;20481;-72
2021/08/12 00:55:30;;;;;;;8.63;7.10;;;;;;;16.07;100.00;96254.13;1022824;29;20170;-70
2021/08/12 00:56:01;;;;;;;12.90;7.30;;;;;;;16.04;100.00;96250.19;1026792;28;20077;-70
2021/08/12 00:56:31;;;;;;;13.85;8.15;;;;;;;16.03;100.00;96256.56;1026735;28;20513;-70
2021/08/12 00:57:03;;;;;;;12.45;7.03;;;;;;;16.06;100.00;96258.63;1022949;29;20031;-70
2021/08/12 00:57:34;;;;;;;14.15;7.88;;;;;;;16.05;100.00;96256.28;1026913;28;20031;-71
2021/08/12 00:58:05;;;;;;;11.93;7.55;;;;;;;16.04;100.00;96260.78;1030906;28;20026;-71
2021/08/12 00:58:35;;;;;;;13.85;7.50;;;;;;;16.05;100.00;96261.56;1030165;28;20030;-70
2021/08/12 00:59:06;;;;;;;10.93;7.72;;;;;;;15.99;100.00;96253.69;1026902;28;20705;-70
2021/08/12 00:59:37;;;;;;;12.98;7.57;;;;;;;16.00;100.00;96249.19;1030957;28;20053;-70
2021/08/12 01:00:09;;;;;;;13.13;7.53;;;;;;;16.04;100.00;96258.13;1030764;28;20091;-70
2021/08/12 01:00:39;;;;;;;16.30;7.70;;;;;;;15.95;100.00;96247.38;1030836;28;20416;-68
2021/08/12 01:01:09;;;;;;;16.13;8.10;;;;;;;16.02;100.00;96258.41;1032026;28;20121;-70
2021/08/12 01:01:40;;;;;;;10.25;7.30;;;;;;;16.01;100.00;96256.06;1033927;28;20060;-70
2021/08/12 01:02:13;;;;;;;23.23;8.30;;;;;;;15.96;100.00;96248.16;1034814;28;20029;-71
2021/08/12 01:02:44;;;;;;;16.98;7.85;;;;;;;15.99;100.00;96253.69;1023267;28;20031;-71
2021/08/12 01:03:14;;;;;;;22.58;8.65;;;;;;;15.95;100.00;96249.25;1027459;28;20477;-70
2021/08/12 01:03:45;;;;;;;21.50;8.32;;;;;;;15.96;100.00;96256.09;1022497;28;20417;-71
2021/08/12 01:04:15;;;;;;;23.23;9.10;;;;;;;15.95;100.00;96255.31;1023379;28;20027;-71
2021/08/12 01:04:47;;;;;;;18.25;8.60;;;;;;;15.92;100.00;96252.44;1034921;28;20029;-71
2021/08/12 01:05:17;;;;;;;25.33;8.52;;;;;;;15.95;100.00;96252.66;1030572;28;20026;-71
2021/08/12 01:05:48;;;;;;;22.05;8.38;;;;;;;15.96;100.00;96250.81;1030962;28;20058;-71
2021/08/12 01:06:23;;;;;;;18.92;7.97;;;;;;;15.95;100.00;96249.25;1026931;28;20097;-70
2021/08/12 01:07:01;;;;;;;15.13;7.47;;;;;;;15.92;100.00;96253.22;1027359;28;20026;-70
2021/08/12 01:07:33;;;;;;;17.63;8.23;;;;;;;15.92;100.00;96257.75;1026882;28;20098;-71
2021/08/12 01:08:13;;;;;;;17.25;8.30;;;;;;;15.92;100.00;96263.03;1024827;28;20019;-71
2021/08/12 01:09:12;;;;;;;23.42;8.38;;;;;;;15.91;100.00;96256.19;1026150;28;20027;-70
2021/08/12 01:09:49;;;;;;;18.08;8.35;;;;;;;15.89;100.00;96255.66;1025918;28;20393;-70
2021/08/12 01:10:45;;;;;;;14.85;7.70;;;;;;;15.89;100.00;96253.81;1027989;28;20033;-70
2021/08/12 01:11:21;;;;;;;16.60;7.63;;;;;;;15.88;100.00;96254.88;1031155;28;20026;-71
2021/08/12 01:11:57;;;;;;;19.20;8.55;;;;;;;15.88;100.00;96256.75;1026884;28;20105;-70
2021/08/12 01:12:37;;;;;;;15.00;8.80;;;;;;;15.86;100.00;96257.03;1023567;29;20132;-70
2021/08/12 01:13:27;;;;;;;19.83;8.52;;;;;;;15.68;100.00;96224.16;1031596;28;20130;-70
2021/08/12 01:14:18;;;;;;;12.15;8.20;;;;;;;15.85;100.00;96266.03;1031530;28;20562;-70
2021/08/12 01:15:01;;;;;;;13.95;7.93;;;;;;;15.76;100.00;96255.31;1033159;28;20480;-72
2021/08/12 01:15:34;;;;;;;13.73;8.15;;;;;;;15.81;100.00;96257.09;1037774;28;20021;-71
2021/08/12 01:16:04;;;;;;;10.68;7.75;;;;;;;15.81;100.00;96257.09;1034823;28;20026;-70
2021/08/12 01:16:46;;;;;;;11.35;8.15;;;;;;;15.74;100.00;96252.13;1036484;28;20033;-71
2021/08/12 01:17:23;;;;;;;12.82;8.13;;;;;;;15.76;100.00;96255.31;1031942;28;20026;-71
2021/08/12 01:18:04;;;;;;;11.45;8.02;;;;;;;15.79;100.00;96259.22;1030504;28;20034;-70
2021/08/12 01:18:38;;;;;;;18.48;8.15;;;;;;;15.75;100.00;96256.34;1030768;28;20033;-71
2021/08/12 01:19:41;;;;;;;10.80;8.10;;;;;;;15.74;100.00;96260.06;1022761;29;20027;-71
2021/08/12 01:20:26;;;;;;;13.07;7.82;;;;;;;15.73;100.00;96261.16;1027647;28;20033;-70
2021/08/12 01:21:24;;;;;;;10.93;8.18;;;;;;;15.73;100.00;96255.84;1031519;28;20058;-70
2021/08/12 01:21:58;;;;;;;11.35;8.10;;;;;;;15.75;100.00;96258.22;1034286;28;20034;-70
2021/08/12 01:22:28;;;;;;;12.40;8.30;;;;;;;15.73;100.00;96261.16;1027040;28;20141;-70
2021/08/12 01:22:59;;;;;;;14.10;7.47;;;;;;;15.73;100.00;96257.72;1020018;29;20103;-71
2021/08/12 01:23:29;;;;;;;11.82;8.15;;;;;;;15.69;100.00;96254.84;1018891;29;20035;-70
2021/08/12 01:24:03;;;;;;;12.80;8.15;;;;;;;15.77;100.00;96254.22;1022867;29;20417;-70
2021/08/12 01:24:38;;;;;;;14.98;8.55;;;;;;;15.76;100.00;96257.94;1022591;28;20027;-70
2021/08/12 01:25:11;;;;;;;10.73;8.18;;;;;;;15.75;100.00;96256.34;1022654;29;20027;-71
2021/08/12 01:25:42;;;;;;;14.93;8.07;;;;;;;15.77;100.00;96253.44;1031331;28;20065;-71
2021/08/12 01:26:15;;;;;;;11.80;8.43;;;;;;;15.76;100.00;96254.47;1026807;28;20023;-67
2021/08/12 01:26:47;;;;;;;18.75;8.32;;;;;;;15.68;100.00;96241.88;1026889;28;20138;-70
2021/08/12 01:27:17;;;;;;;9.95;7.70;;;;;;;15.75;100.00;96252.91;1022562;29;20494;-70
2021/08/12 01:27:49;;;;;;;12.57;7.97;;;;;;;15.74;100.00;96251.34;1018971;29;20031;-72
2021/08/12 01:28:23;;;;;;;14.65;8.05;;;;;;;15.74;100.00;96249.50;1027010;28;20113;-70
2021/08/12 01:28:55;;;;;;;12.68;7.85;;;;;;;15.73;100.00;96249.78;1027737;28;20569;-69
2021/08/12 01:29:59;;;;;;;14.10;8.75;;;;;;;15.70;100.00;96248.47;1034817;28;20022;-70
2021/08/12 01:30:31;;;;;;;14.02;7.47;;;;;;;15.72;100.00;96256.13;1035107;28;20495;-70
2021/08/12 01:31:26;;;;;;;22.73;8.65;;;;;;;15.71;100.00;96257.22;1031317;28;20015;-72
2021/08/12 01:32:02;;;;;;;13.77;8.10;;;;;;;15.70;100.00;96251.13;1026098;28;20068;-70
2021/08/12 01:32:34;;;;;;;14.13;7.68;;;;;;;15.69;100.00;96254.84;1025892;28;20069;-70
2021/08/12 01:33:15;;;;;;;16.17;8.15;;;;;;;15.72;100.00;96245.53;1026503;28;20046;-70
2021/08/12 01:33:55;;;;;;;10.73;8.40;;;;;;;15.72;100.00;96248.97;1028945;28;20027;-70
2021/08/12 01:34:30;;;;;;;21.00;9.10;;;;;;;15.72;100.00;96250.84;1022881;29;20027;-73
2021/08/12 01:35:08;;;;;;;15.52;8.27;;;;;;;15.74;100.00;96254.00;1022789;28;20115;-71
2021/08/12 01:35:39;;;;;;;11.52;7.65;;;;;;;15.74;100.00;96251.34;1022667;29;20063;-70
2021/08/12 01:36:09;;;;;;;16.63;8.57;;;;;;;15.71;100.00;96246.63;1030674;28;20061;-70
2021/08/12 01:36:43;;;;;;;17.52;8.52;;;;;;;15.73;100.00;96249.78;1026849;28;20031;-70
2021/08/12 01:37:13;;;;;;;16.73;7.53;;;;;;;15.73;100.00;96249.78;1026923;28;20145;-70
2021/08/12 01:37:56;;;;;;;12.02;8.52;;;;;;;15.75;100.00;96252.91;1026867;28;20022;-71
2021/08/12 01:38:27;;;;;;;12.82;8.05;;;;;;;15.70;100.00;96245.84;1028922;28;20034;-70
2021/08/12 01:38:58;;;;;;;16.70;8.82;;;;;;;15.67;100.00;96249.03;1025049;28;20019;-70
2021/08/12 01:39:29;;;;;;;14.38;8.52;;;;;;;15.70;100.00;96251.13;1022633;29;20724;-69
2021/08/12 01:40:00;;;;;;;9.60;8.23;;;;;;;15.69;100.00;96254.84;1022736;29;20024;-71
2021/08/12 01:40:31;;;;;;;14.07;8.52;;;;;;;15.69;100.00;96254.84;1026829;28;20110;-70
2021/08/12 01:41:02;;;;;;;10.85;8.25;;;;;;;15.68;100.00;96253.25;1030941;28;20030;-72
2021/08/12 01:41:32;;;;;;;14.20;9.02;;;;;;;15.68;100.00;96252.47;1031349;28;20053;-71
2021/08/12 01:42:03;;;;;;;22.42;8.93;;;;;;;15.66;100.00;96249.28;1026108;28;20086;-70
2021/08/12 01:42:34;;;;;;;15.40;8.88;;;;;;;15.63;100.00;96245.38;1023222;29;20114;-70
2021/08/12 01:43:14;;;;;;;17.67;8.95;;;;;;;15.66;100.00;96252.78;1026725;28;20484;-72
2021/08/12 01:43:45;;;;;;;;;;;;;;;15.64;100.00;96252.22;1025592;28;20098;-72
2021/08/12 01:44:15;;;;;;;14.13;8.55;;;;;;;15.63;100.00;96249.88;1026997;28;19969;-69
2021/08/12 01:44:46;;;;;;;13.35;8.75;;;;;;;15.57;100.00;96244.63;1032130;28;20089;-70
2021/08/12 01:45:17;;;;;;;10.80;8.85;;;;;;;15.64;100.00;96246.16;1030798;28;20036;-70
2021/08/12 01:45:52;;;;;;;20.27;8.68;;;;;;;15.63;100.00;96266.53;1033069;28;20448;-71
2021/08/12 01:46:23;;;;;;;14.13;9.25;;;;;;;15.64;100.00;96256.72;1027190;28;20493;-70
2021/08/12 01:46:54;;;;;;;13.63;9.00;;;;;;;15.56;100.00;96248.34;1031689;28;20074;-69
2021/08/12 01:47:24;;;;;;;14.98;8.85;;;;;;;15.62;100.00;96264.16;1022485;29;20127;-70
2021/08/12 01:47:55;;;;;;;12.02;9.32;;;;;;;15.60;100.00;96264.44;1022755;28;20067;-70
2021/08/12 01:48:25;;;;;;;17.25;9.13;;;;;;;15.56;100.00;96260.78;1026694;28;20030;-70
2021/08/12 01:48:56;;;;;;;12.80;8.50;;;;;;;15.56;100.00;96255.50;1026790;28;20023;-70
2021/08/12 01:49:26;;;;;;;18.98;9.27;;;;;;;15.55;100.00;96256.53;1018701;29;20031;-69
2021/08/12 01:49:57;;;;;;;19.30;9.60;;;;;;;15.57;100.00;96262.34;1027058;28;20492;-72
2021/08/12 01:50:27;;;;;;;18.35;9.13;;;;;;;15.51;100.00;96255.53;1026532;28;20038;-69
2021/08/12 01:50:58;;;;;;;21.92;8.93;;;;;;;15.56;100.00;96260.78;1026792;28;20042;-70
2021/08/12 01:51:28;;;;;;;12.02;9.32;;;;;;;15.50;100.00;96252.13;1030181;28;20023;-70
2021/08/12 01:51:58;;;;;;;15.15;8.90;;;;;;;15.54;100.00;96260.28;1021177;28;20371;-70
2021/08/12 01:52:30;;;;;;;16.00;8.82;;;;;;;15.51;100.00;96252.91;1026569;28;20035;-70
2021/08/12 01:53:01;;;;;;;12.90;9.18;;;;;;;15.53;100.00;96253.41;1026643;28;20073;-70
2021/08/12 01:53:32;;;;;;;14.20;8.70;;;;;;;15.54;100.00;96260.28;1030979;28;20499;-70
2021/08/12 01:54:02;;;;;;;19.80;9.90;;;;;;;15.53;100.00;96256.06;1026075;28;20027;-70
2021/08/12 01:54:33;;;;;;;12.50;7.93;;;;;;;15.54;100.00;96258.41;1026497;28;20034;-70
2021/08/12 01:55:04;;;;;;;15.40;8.20;;;;;;;15.49;100.00;96247.09;1027244;28;20042;-70
2021/08/12 01:55:34;;;;;;;15.55;9.23;;;;;;;15.54;100.00;96257.63;1034023;28;20483;-69
2021/08/12 01:56:05;;;;;;;9.90;8.18;;;;;;;15.49;100.00;96255.84;1030793;28;20041;-70
2021/08/12 01:56:37;;;;;;;14.15;9.15;;;;;;;15.51;100.00;96255.53;1031188;28;20022;-71
2021/08/12 01:57:07;;;;;;;21.63;9.23;;;;;;;15.52;100.00;96265.03;1022407;29;20023;-70
2021/08/12 01:57:40;;;;;;;14.38;8.52;;;;;;;15.52;100.00;96249.16;1022694;29;20031;-70
2021/08/12 01:58:11;;;;;;;16.00;9.20;;;;;;;15.42;100.00;96244.00;1019248;29;20393;-70
2021/08/12 01:58:42;;;;;;;15.77;8.68;;;;;;;15.49;100.00;96255.03;1026651;28;20031;-71
2021/08/12 01:59:12;;;;;;;17.13;8.73;;;;;;;15.50;100.00;96256.63;1034018;28;20384;-70
2021/08/12 01:59:43;;;;;;;17.00;8.80;;;;;;;15.49;100.00;96257.66;1030718;28;20093;-70
2021/08/12 02:00:13;;;;;;;12.43;8.88;;;;;;;15.49;100.00;96255.03;1030510;28;20588;-70
2021/08/12 02:00:47;;;;;;;20.58;8.63;;;;;;;15.49;100.00;96255.03;1030750;28;20100;-70
2021/08/12 02:01:18;;;;;;;18.58;8.77;;;;;;;15.47;100.00;96263.25;1026527;28;20102;-70
2021/08/12 02:01:48;;;;;;;24.10;8.20;;;;;;;15.46;100.00;96253.75;1026886;28;20034;-68
2021/08/12 02:02:19;;;;;;;9.52;7.45;;;;;;;15.46;100.00;96250.28;1025082;28;20074;-70
2021/08/12 02:02:49;;;;;;;13.05;7.93;;;;;;;15.47;100.00;96260.59;1026595;28;20033;-70
2021/08/12 02:03:20;;;;;;;12.88;8.77;;;;;;;15.40;100.00;96240.84;1027015;28;20039;-70
2021/08/12 02:03:50;;;;;;;12.70;8.55;;;;;;;15.44;100.00;96257.72;1022672;29;20754;-70
2021/08/12 02:04:21;;;;;;;12.88;8.48;;;;;;;15.43;100.00;96254.31;1030416;28;20030;-69
2021/08/12 02:04:51;;;;;;;17.85;8.80;;;;;;;15.40;100.00;96246.16;1022724;29;20038;-69
2021/08/12 02:05:22;;;;;;;13.20;8.82;;;;;;;15.45;100.00;96256.66;1022689;29;20030;-70
2021/08/12 02:05:52;;;;;;;12.93;8.55;;;;;;;15.40;100.00;96251.44;1024416;28;20133;-69
2021/08/12 02:06:23;;;;;;;15.30;8.60;;;;;;;15.36;100.00;96253.03;1022848;29;20671;-70
2021/08/12 02:06:54;;;;;;;12.55;7.47;;;;;;;15.38;100.00;96258.84;1026476;28;20118;-70
2021/08/12 02:07:24;;;;;;;10.77;7.55;;;;;;;15.37;100.00;96252.78;1033856;28;20026;-70
2021/08/12 02:07:55;;;;;;;12.88;7.97;;;;;;;15.38;100.00;96251.69;1026667;28;20031;-70
2021/08/12 02:08:25;;;;;;;11.23;7.85;;;;;;;15.39;100.00;96250.66;1018711;29;20086;-70
2021/08/12 02:08:55;;;;;;;10.88;8.13;;;;;;;15.39;100.00;96255.94;1027042;28;20027;-70
2021/08/12 02:09:26;;;;;;;12.40;8.68;;;;;;;15.35;100.00;96254.13;1026617;28;20034;-71
2021/08/12 02:09:56;;;;;;;12.18;8.52;;;;;;;15.38;100.00;96256.19;1026935;28;20035;-70
2021/08/12 02:10:27;;;;;;;12.07;8.57;;;;;;;15.37;100.00;96247.50;1034939;28;20034;-70
2021/08/12 02:10:57;;;;;;;14.95;8.55;;;;;;;15.35;100.00;96254.91;1034439;28;20578;-70
2021/08/12 02:11:28;;;;;;;10.07;7.90;;;;;;;15.32;100.00;96256.28;1034711;28;20084;-70
2021/08/12 02:11:58;;;;;;;16.63;8.27;;;;;;;15.30;100.00;96249.69;1029992;28;20029;-70
2021/08/12 02:12:28;;;;;;;14.32;9.18;;;;;;;15.35;100.00;96254.91;1030161;28;20031;-70
2021/08/12 02:13:01;;;;;;;18.33;8.07;;;;;;;15.32;100.00;96250.97;1030754;28;20420;-70
2021/08/12 02:13:32;;;;;;;14.80;8.35;;;;;;;15.26;100.00;96240.72;1030507;28;20029;-70
2021/08/12 02:14:03;;;;;;;10.77;8.55;;;;;;;15.31;100.00;96248.59;1026621;28;20050;-69
2021/08/12 02:14:34;;;;;;;11.45;8.10;;;;;;;15.27;100.00;96247.59;1022855;28;20839;-70
2021/08/12 02:15:05;;;;;;;16.52;8.93;;;;;;;15.29;100.00;96251.53;1022669;29;20753;-70
2021/08/12 02:15:35;;;;;;;14.70;7.97;;;;;;;15.31;100.00;96254.66;1022654;29;20032;-69
2021/08/12 02:16:09;;;;;;;15.98;8.60;;;;;;;15.29;100.00;96253.38;1018597;29;20027;-70
2021/08/12 02:16:39;;;;;;;14.20;9.23;;;;;;;15.28;100.00;96257.88;1020544;28;20059;-70
2021/08/12 02:17:10;;;;;;;15.95;8.45;;;;;;;15.26;100.00;96256.59;1027232;28;20023;-69
2021/08/12 02:17:41;;;;;;;15.05;7.60;;;;;;;15.21;100.00;96244.19;1032104;28;20540;-71
2021/08/12 02:18:11;;;;;;;13.07;8.57;;;;;;;15.25;100.00;96252.34;1030601;28;20393;-70
2021/08/12 02:18:41;;;;;;;10.95;8.52;;;;;;;15.23;100.00;96252.66;1026966;28;20084;-70
2021/08/12 02:19:12;;;;;;;14.85;8.55;;;;;;;15.24;100.00;96251.56;1030591;28;20025;-70
2021/08/12 02:19:42;;;;;;;12.55;8.73;;;;;;;15.22;100.00;96253.69;1030453;28;20026;-71
2021/08/12 02:20:16;;;;;;;10.18;8.25;;;;;;;15.15;100.00;96245.31;1033211;28;20045;-69
2021/08/12 02:20:48;;;;;;;13.75;8.70;;;;;;;15.18;100.00;96249.25;1030988;28;20421;-70
2021/08/12 02:21:30;;;;;;;11.02;9.07;;;;;;;15.16;100.00;96254.84;1030813;28;20038;-70
2021/08/12 02:22:04;;;;;;;19.83;8.90;;;;;;;15.17;100.00;96247.69;1026402;28;20027;-70
2021/08/12 02:22:57;;;;;;;14.30;8.90;;;;;;;15.17;100.00;96253.75;1027694;28;20023;-70
2021/08/12 02:23:39;;;;;;;13.73;8.43;;;;;;;15.14;100.00;96249.03;1019305;29;20034;-70
2021/08/12 02:24:14;;;;;;;18.15;8.98;;;;;;;15.15;100.00;96250.59;1019500;29;20023;-70
2021/08/12 02:24:51;;;;;;;25.42;9.52;;;;;;;15.13;100.00;96258.03;1026007;28;20022;-69
2021/08/12 02:25:39;;;;;;;13.60;8.20;;;;;;;15.13;100.00;96254.59;1031456;28;21053;-70
2021/08/12 02:26:11;;;;;;;14.18;8.15;;;;;;;15.08;100.00;96250.13;1023569;28;20082;-71
2021/08/12 02:26:47;;;;;;;12.65;8.40;;;;;;;15.12;100.00;96253.00;1031629;28;20023;-71
2021/08/12 02:27:18;;;;;;;16.90;8.52;;;;;;;15.06;100.00;96247.00;1039566;28;20419;-70
2021/08/12 02:27:49;;;;;;;13.10;8.10;;;;;;;15.10;100.00;96253.31;1031153;28;20022;-70
2021/08/12 02:28:19;;;;;;;15.70;8.30;;;;;;;15.09;100.00;96252.50;1023311;29;20097;-71
2021/08/12 02:28:51;;;;;;;15.55;8.65;;;;;;;15.03;100.00;96243.06;1023381;29;20071;-70